Time;durP1;ratioP1;P1;durP2;ratioP2;P2;SDS_P1;SDS_P2;PMS_P1;PMS_P2;Temp;Humidity;BMP_temperature;BMP_pressure;BME280_temperature;BME280_humidity;BME280_pressure;Samples;Min_cycle;Max_cycle;Signal;HPM_P1;HPM_P2
2023/09/18 00:00:23;;;;;;;6.60;5.60;;;;;;;-128.00;-1.00;-1.00;19073;317;7504784;-31
2023/09/18 00:02:52;;;;;;;8.90;8.00;;;;;;;-128.00;-1.00;-1.00;19461;322;7505033;-34
2023/09/18 00:05:17;;;;;;;13.80;7.60;;;;;;;-128.00;-1.00;-1.00;19066;322;7504617;-34
2023/09/18 00:07:44;;;;;;;8.40;7.10;;;;;;;-128.00;-1.00;-1.00;19441;322;7505141;-34
2023/09/18 00:10:11;;;;;;;6.50;5.90;;;;;;;-128.00;-1.00;-1.00;19480;317;7504891;-30
2023/09/18 00:12:37;;;;;;;7.60;5.40;;;;;;;-128.00;-1.00;-1.00;19054;317;7506359;-30
2023/09/18 00:15:03;;;;;;;8.50;5.80;;;;;;;-128.00;-1.00;-1.00;19085;317;7504177;-31
2023/09/18 00:17:29;;;;;;;11.50;7.30;;;;;;;-128.00;-1.00;-1.00;19007;317;7504926;-31
2023/09/18 00:19:55;;;;;;;6.70;6.10;;;;;;;-128.00;-1.00;-1.00;19054;322;7504705;-31
2023/09/18 00:22:21;;;;;;;6.80;6.10;;;;;;;-128.00;-1.00;-1.00;19082;321;7505220;-35
2023/09/18 00:24:47;;;;;;;17.20;6.50;;;;;;;-128.00;-1.00;-1.00;19082;317;7504983;-34
2023/09/18 00:27:13;;;;;;;6.30;5.70;;;;;;;-128.00;-1.00;-1.00;19086;321;7504685;-31
2023/09/18 00:29:39;;;;;;;15.30;5.50;;;;;;;-128.00;-1.00;-1.00;19089;317;7504685;-35
2023/09/18 00:32:06;;;;;;;7.00;5.80;;;;;;;-128.00;-1.00;-1.00;19010;322;7505290;-31
2023/09/18 00:34:34;;;;;;;19.00;7.60;;;;;;;-128.00;-1.00;-1.00;19033;318;7506666;-31
2023/09/18 00:37:00;;;;;;;6.80;6.10;;;;;;;-128.00;-1.00;-1.00;19042;317;7504757;-35
2023/09/18 01:19:39;;;;;;;16.90;7.70;;;;;;;-99.29;19.20;19879.62;101444;316;1574046;-33
2023/09/18 01:22:05;;;;;;;7.00;5.60;;;;;;;-128.00;-1.00;-1.00;100577;317;1003206;-32
2023/09/18 01:24:34;;;;;;;5.80;5.20;;;;;;;-128.00;-1.00;-1.00;47678;317;7505257;-35
2023/09/18 01:27:00;;;;;;;7.10;6.20;;;;;;;-128.00;-1.00;-1.00;19062;316;7505325;-31
2023/09/18 01:29:25;;;;;;;10.20;6.00;;;;;;;-128.00;-1.00;-1.00;19053;317;7505523;-31
2023/09/18 01:31:52;;;;;;;10.00;6.30;;;;;;;-128.00;-1.00;-1.00;19086;317;7505364;-31
2023/09/18 01:34:26;;;;;;;6.50;5.60;;;;;;;-128.00;-1.00;-1.00;19077;317;7506355;-34
2023/09/18 01:36:52;;;;;;;8.10;6.90;;;;;;;-128.00;-1.00;-1.00;19071;316;7504988;-31
2023/09/18 01:39:19;;;;;;;9.80;6.30;;;;;;;-128.00;-1.00;-1.00;19485;320;7505369;-35
2023/09/18 01:41:44;;;;;;;9.40;7.10;;;;;;;-128.00;-1.00;-1.00;19050;317;7504663;-34
2023/09/18 01:44:10;;;;;;;10.90;6.60;;;;;;;-128.00;-1.00;-1.00;19062;317;7504970;-35
2023/09/18 01:46:36;;;;;;;7.10;6.10;;;;;;;-128.00;-1.00;-1.00;19080;322;7504477;-35
2023/09/18 01:49:03;;;;;;;12.30;7.40;;;;;;;-128.00;-1.00;-1.00;19490;320;7504875;-31
2023/09/18 01:51:29;;;;;;;8.00;6.00;;;;;;;-128.00;-1.00;-1.00;19042;322;7505418;-35
2023/09/18 01:53:55;;;;;;;15.20;6.40;;;;;;;-128.00;-1.00;-1.00;19072;316;7505263;-32
2023/09/18 01:56:21;;;;;;;7.20;6.00;;;;;;;-128.00;-1.00;-1.00;19082;316;7505128;-34
2023/09/18 01:58:47;;;;;;;6.70;6.00;;;;;;;-128.00;-1.00;-1.00;19037;318;7504932;-34
2023/09/18 02:01:13;;;;;;;6.80;5.20;;;;;;;-128.00;-1.00;-1.00;19071;321;7506524;-32
2023/09/18 02:03:41;;;;;;;7.70;6.70;;;;;;;-128.00;-1.00;-1.00;19012;317;7505277;-31
2023/09/18 02:06:08;;;;;;;8.10;7.00;;;;;;;-128.00;-1.00;-1.00;19049;322;7504619;-31
2023/09/18 02:08:34;;;;;;;8.50;7.70;;;;;;;-128.00;-1.00;-1.00;19065;322;7504923;-34
2023/09/18 02:11:00;;;;;;;12.40;7.30;;;;;;;-128.00;-1.00;-1.00;19071;317;7504375;-34
2023/09/18 02:13:26;;;;;;;7.20;6.20;;;;;;;-128.00;-1.00;-1.00;19068;316;7506243;-34
2023/09/18 02:15:53;;;;;;;8.10;7.30;;;;;;;-128.00;-1.00;-1.00;19061;322;7506618;-30
2023/09/18 02:18:19;;;;;;;15.70;6.50;;;;;;;-128.00;-1.00;-1.00;19057;317;7505030;-31
2023/09/18 02:20:48;;;;;;;9.20;6.70;;;;;;;-128.00;-1.00;-1.00;19085;322;7505181;-34
2023/09/18 02:23:15;;;;;;;10.00;7.20;;;;;;;-128.00;-1.00;-1.00;19022;318;7507137;-35
2023/09/18 02:25:41;;;;;;;8.60;6.80;;;;;;;-128.00;-1.00;-1.00;19078;322;7506438;-32
2023/09/18 02:28:07;;;;;;;7.70;7.00;;;;;;;-128.00;-1.00;-1.00;19064;322;7506826;-35
2023/09/18 02:30:32;;;;;;;5.70;5.20;;;;;;;-128.00;-1.00;-1.00;19064;322;7506237;-35
2023/09/18 02:32:59;;;;;;;10.00;7.20;;;;;;;-128.00;-1.00;-1.00;19487;316;7505257;-31
2023/09/18 02:35:25;;;;;;;13.80;6.50;;;;;;;-128.00;-1.00;-1.00;19051;321;7504984;-33
2023/09/18 02:37:52;;;;;;;8.00;6.90;;;;;;;-128.00;-1.00;-1.00;19074;322;7504483;-31
2023/09/18 02:40:17;;;;;;;9.50;6.00;;;;;;;-128.00;-1.00;-1.00;19072;322;7504540;-35
2023/09/18 02:42:44;;;;;;;8.70;7.60;;;;;;;-128.00;-1.00;-1.00;19497;322;7504527;-35
2023/09/18 02:45:10;;;;;;;10.20;7.90;;;;;;;-128.00;-1.00;-1.00;19480;317;7504518;-35
2023/09/18 02:47:40;;;;;;;8.30;7.40;;;;;;;-128.00;-1.00;-1.00;19487;322;7504610;-35
2023/09/18 02:50:07;;;;;;;6.70;6.20;;;;;;;-128.00;-1.00;-1.00;19063;322;7504343;-31
2023/09/18 02:52:32;;;;;;;8.00;7.20;;;;;;;-128.00;-1.00;-1.00;19076;317;7506259;-35
2023/09/18 02:54:58;;;;;;;9.70;8.50;;;;;;;-128.00;-1.00;-1.00;19478;316;7504970;-35
2023/09/18 02:57:25;;;;;;;11.80;8.30;;;;;;;-128.00;-1.00;-1.00;19484;322;7504842;-35
2023/09/18 02:59:51;;;;;;;12.20;8.60;;;;;;;-128.00;-1.00;-1.00;19461;317;7505383;-35
2023/09/18 03:02:17;;;;;;;10.70;8.20;;;;;;;-128.00;-1.00;-1.00;19479;317;7506261;-31
2023/09/18 03:04:43;;;;;;;11.60;7.90;;;;;;;-128.00;-1.00;-1.00;19494;317;7505514;-34
2023/09/18 03:07:12;;;;;;;8.60;7.50;;;;;;;-128.00;-1.00;-1.00;19495;322;7505177;-34
2023/09/18 03:09:38;;;;;;;10.10;6.50;;;;;;;-128.00;-1.00;-1.00;19065;317;7505064;-30
2023/09/18 03:12:04;;;;;;;7.90;6.90;;;;;;;-128.00;-1.00;-1.00;19064;317;7507213;-34
2023/09/18 03:14:30;;;;;;;8.50;7.60;;;;;;;-128.00;-1.00;-1.00;19076;322;7507714;-33
2023/09/18 03:16:56;;;;;;;11.20;8.00;;;;;;;-128.00;-1.00;-1.00;19483;317;7504366;-34
2023/09/18 03:19:24;;;;;;;10.20;7.50;;;;;;;-128.00;-1.00;-1.00;19473;317;7505105;-32
2023/09/18 03:21:50;;;;;;;7.60;6.40;;;;;;;-128.00;-1.00;-1.00;19060;317;7504931;-36
2023/09/18 03:24:15;;;;;;;7.70;6.90;;;;;;;-128.00;-1.00;-1.00;19019;316;7506413;-35
2023/09/18 03:26:42;;;;;;;13.60;7.20;;;;;;;-128.00;-1.00;-1.00;19066;316;7505012;-34
2023/09/18 03:29:08;;;;;;;9.70;8.20;;;;;;;-128.00;-1.00;-1.00;19505;322;7505352;-31
2023/09/18 03:31:34;;;;;;;10.20;9.00;;;;;;;-128.00;-1.00;-1.00;19478;317;7505438;-31
2023/09/18 03:34:01;;;;;;;9.90;8.30;;;;;;;-128.00;-1.00;-1.00;19438;321;7506729;-31
2023/09/18 03:36:27;;;;;;;11.10;8.80;;;;;;;-128.00;-1.00;-1.00;19492;317;7505772;-31
2023/09/18 03:38:53;;;;;;;10.70;8.70;;;;;;;-128.00;-1.00;-1.00;19488;316;7504839;-35
2023/09/18 03:41:19;;;;;;;10.00;9.00;;;;;;;-128.00;-1.00;-1.00;19460;322;7505392;-32
2023/09/18 03:43:45;;;;;;;10.60;8.90;;;;;;;-128.00;-1.00;-1.00;19474;317;7505224;-35
2023/09/18 03:46:11;;;;;;;15.70;10.20;;;;;;;-128.00;-1.00;-1.00;19492;322;7505306;-45
2023/09/18 03:48:38;;;;;;;12.00;8.80;;;;;;;-128.00;-1.00;-1.00;19461;317;7504945;-33
2023/09/18 03:51:05;;;;;;;11.30;9.50;;;;;;;-128.00;-1.00;-1.00;19504;322;7504905;-34
2023/09/18 03:53:33;;;;;;;9.20;7.40;;;;;;;-128.00;-1.00;-1.00;19090;318;7506239;-31
2023/09/18 03:55:59;;;;;;;11.70;7.50;;;;;;;-128.00;-1.00;-1.00;19042;322;7504456;-35
2023/09/18 03:58:25;;;;;;;6.60;5.80;;;;;;;-128.00;-1.00;-1.00;19083;317;7505465;-32
2023/09/18 04:00:51;;;;;;;10.20;9.00;;;;;;;-128.00;-1.00;-1.00;19037;317;7504584;-31
2023/09/18 04:03:17;;;;;;;10.60;9.20;;;;;;;-128.00;-1.00;-1.00;19058;322;7505160;-30
2023/09/18 04:05:42;;;;;;;10.80;7.60;;;;;;;-128.00;-1.00;-1.00;19057;322;7505027;-36
2023/09/18 04:08:09;;;;;;;10.50;9.40;;;;;;;-128.00;-1.00;-1.00;19455;322;7504822;-32
2023/09/18 04:10:35;;;;;;;9.40;8.50;;;;;;;-128.00;-1.00;-1.00;19455;323;7504476;-32
2023/09/18 04:13:01;;;;;;;11.70;9.40;;;;;;;-128.00;-1.00;-1.00;19464;322;7505133;-35
2023/09/18 04:15:27;;;;;;;13.60;9.70;;;;;;;-128.00;-1.00;-1.00;19451;318;7506656;-32
2023/09/18 04:17:53;;;;;;;11.30;9.50;;;;;;;-128.00;-1.00;-1.00;19473;316;7504751;-31
2023/09/18 04:20:20;;;;;;;10.00;9.00;;;;;;;-128.00;-1.00;-1.00;19442;322;7504771;-35
2023/09/18 04:22:51;;;;;;;11.60;9.30;;;;;;;-128.00;-1.00;-1.00;19467;320;7504611;-35
2023/09/18 04:25:16;;;;;;;13.70;8.10;;;;;;;-128.00;-1.00;-1.00;19038;322;7506457;-31
2023/09/18 04:27:43;;;;;;;7.30;6.60;;;;;;;-128.00;-1.00;-1.00;19056;317;7506511;-31
2023/09/18 04:30:10;;;;;;;10.40;8.80;;;;;;;-128.00;-1.00;-1.00;19473;317;7504625;-30
2023/09/18 04:32:37;;;;;;;10.20;8.50;;;;;;;-128.00;-1.00;-1.00;19063;320;7507158;-31
2023/09/18 04:35:05;;;;;;;20.50;9.60;;;;;;;-128.00;-1.00;-1.00;19024;318;7505517;-34
2023/09/18 04:37:31;;;;;;;9.10;7.40;;;;;;;-128.00;-1.00;-1.00;19063;317;7505221;-30
2023/09/18 04:39:57;;;;;;;16.20;8.30;;;;;;;-128.00;-1.00;-1.00;19041;318;7505984;-35
2023/09/18 04:42:23;;;;;;;11.80;9.00;;;;;;;-128.00;-1.00;-1.00;19057;317;7506699;-31
2023/09/18 04:44:49;;;;;;;21.10;9.10;;;;;;;-128.00;-1.00;-1.00;19050;322;7506627;-35
2023/09/18 04:47:15;;;;;;;8.40;7.50;;;;;;;-128.00;-1.00;-1.00;19055;317;7505111;-31
2023/09/18 04:49:40;;;;;;;12.20;9.30;;;;;;;-128.00;-1.00;-1.00;19050;317;7506214;-35
2023/09/18 04:52:06;;;;;;;12.70;9.80;;;;;;;-128.00;-1.00;-1.00;19052;317;7505653;-32
2023/09/18 04:54:31;;;;;;;20.90;7.90;;;;;;;-128.00;-1.00;-1.00;19041;322;7504787;-31
2023/09/18 04:56:57;;;;;;;12.10;9.30;;;;;;;-128.00;-1.00;-1.00;19056;322;7505025;-35
2023/09/18 04:59:23;;;;;;;10.00;8.40;;;;;;;-128.00;-1.00;-1.00;19040;322;7504653;-36
2023/09/18 05:01:49;;;;;;;12.00;9.20;;;;;;;-128.00;-1.00;-1.00;19433;322;7505437;-36
2023/09/18 05:04:16;;;;;;;22.00;9.10;;;;;;;-128.00;-1.00;-1.00;19489;317;7504727;-31
2023/09/18 05:06:41;;;;;;;10.30;9.10;;;;;;;-128.00;-1.00;-1.00;19082;317;7505826;-35
2023/09/18 05:09:08;;;;;;;9.90;8.60;;;;;;;-128.00;-1.00;-1.00;19073;317;7506410;-35
2023/09/18 05:11:34;;;;;;;7.60;6.80;;;;;;;-128.00;-1.00;-1.00;19060;317;7505263;-32
2023/09/18 05:13:59;;;;;;;8.50;7.70;;;;;;;-128.00;-1.00;-1.00;19024;317;7504854;-35
2023/09/18 05:16:25;;;;;;;13.80;9.40;;;;;;;-128.00;-1.00;-1.00;19047;317;7504480;-31
2023/09/18 05:18:51;;;;;;;12.50;10.20;;;;;;;-128.00;-1.00;-1.00;19480;322;7505499;-35
2023/09/18 05:21:22;;;;;;;12.60;9.90;;;;;;;-128.00;-1.00;-1.00;19469;317;7504525;-32
2023/09/18 05:23:48;;;;;;;10.30;8.10;;;;;;;-128.00;-1.00;-1.00;19059;317;7505807;-35
2023/09/18 05:26:13;;;;;;;15.70;10.00;;;;;;;-128.00;-1.00;-1.00;19068;320;7505629;-35
2023/09/18 05:28:39;;;;;;;10.70;9.60;;;;;;;-128.00;-1.00;-1.00;19094;317;7504948;-35
2023/09/18 05:31:05;;;;;;;16.30;9.90;;;;;;;-128.00;-1.00;-1.00;19483;320;7505009;-31
2023/09/18 05:33:31;;;;;;;13.70;10.50;;;;;;;-128.00;-1.00;-1.00;19490;317;7506083;-31
2023/09/18 05:35:57;;;;;;;10.90;8.80;;;;;;;-128.00;-1.00;-1.00;19076;320;7504547;-32
2023/09/18 05:38:23;;;;;;;8.70;7.80;;;;;;;-128.00;-1.00;-1.00;19040;322;7505018;-31
2023/09/18 05:40:49;;;;;;;26.10;11.60;;;;;;;-128.00;-1.00;-1.00;19063;316;7505067;-31
2023/09/18 05:43:14;;;;;;;11.70;10.60;;;;;;;-128.00;-1.00;-1.00;19086;317;7505709;-35
2023/09/18 05:45:40;;;;;;;9.40;8.50;;;;;;;-128.00;-1.00;-1.00;19042;322;7506336;-31
2023/09/18 05:48:07;;;;;;;8.50;7.70;;;;;;;-128.00;-1.00;-1.00;19028;323;7507348;-32
2023/09/18 05:50:35;;;;;;;12.70;9.40;;;;;;;-128.00;-1.00;-1.00;19049;317;7504763;-31
2023/09/18 05:53:03;;;;;;;9.60;8.70;;;;;;;-128.00;-1.00;-1.00;19093;317;7504779;-30
2023/09/18 05:55:33;;;;;;;14.30;9.80;;;;;;;-128.00;-1.00;-1.00;19046;317;7505984;-31
2023/09/18 05:57:59;;;;;;;10.40;9.30;;;;;;;-128.00;-1.00;-1.00;19038;317;7504639;-31
2023/09/18 06:00:25;;;;;;;10.00;9.00;;;;;;;-128.00;-1.00;-1.00;19076;322;7505005;-35
2023/09/18 06:02:53;;;;;;;11.80;9.20;;;;;;;-128.00;-1.00;-1.00;19054;317;7504513;-35
2023/09/18 06:05:21;;;;;;;12.20;8.80;;;;;;;-128.00;-1.00;-1.00;19040;316;7505188;-31
2023/09/18 06:07:48;;;;;;;11.40;8.10;;;;;;;-128.00;-1.00;-1.00;19070;317;7506159;-37
2023/09/18 06:10:14;;;;;;;6.50;5.90;;;;;;;-128.00;-1.00;-1.00;19034;317;7505031;-32
2023/09/18 06:12:39;;;;;;;10.30;9.20;;;;;;;-128.00;-1.00;-1.00;19019;318;7506547;-32
2023/09/18 06:15:09;;;;;;;12.00;7.50;;;;;;;-128.00;-1.00;-1.00;19040;322;7504896;-36
2023/09/18 06:17:38;;;;;;;13.50;9.70;;;;;;;-128.00;-1.00;-1.00;19084;317;7505283;-36
2023/09/18 06:20:04;;;;;;;15.70;7.00;;;;;;;-128.00;-1.00;-1.00;19052;322;7505541;-34
2023/09/18 06:22:30;;;;;;;10.70;8.00;;;;;;;-128.00;-1.00;-1.00;19033;322;7505333;-31
2023/09/18 06:24:55;;;;;;;8.60;7.30;;;;;;;-128.00;-1.00;-1.00;19083;317;7507120;-32
2023/09/18 06:27:21;;;;;;;10.80;8.30;;;;;;;-128.00;-1.00;-1.00;19063;317;7504645;-36
2023/09/18 06:29:47;;;;;;;11.50;7.20;;;;;;;-128.00;-1.00;-1.00;19071;320;7504611;-32
2023/09/18 06:32:13;;;;;;;8.00;7.30;;;;;;;-128.00;-1.00;-1.00;19052;317;7505471;-32
2023/09/18 06:34:42;;;;;;;7.60;6.80;;;;;;;-128.00;-1.00;-1.00;19066;317;7504590;-32
2023/09/18 06:37:12;;;;;;;9.70;7.00;;;;;;;-128.00;-1.00;-1.00;19081;322;7504847;-32
2023/09/18 06:39:38;;;;;;;11.00;8.80;;;;;;;-128.00;-1.00;-1.00;19060;321;7507074;-36
2023/09/18 06:42:05;;;;;;;7.40;6.70;;;;;;;-128.00;-1.00;-1.00;19080;322;7504431;-33
2023/09/18 06:44:31;;;;;;;9.30;7.80;;;;;;;-128.00;-1.00;-1.00;19015;317;7504586;-32
2023/09/18 06:46:56;;;;;;;10.70;6.80;;;;;;;-128.00;-1.00;-1.00;19080;317;7505190;-36
2023/09/18 06:49:22;;;;;;;17.40;7.60;;;;;;;-128.00;-1.00;-1.00;19055;317;7506361;-35
2023/09/18 06:51:48;;;;;;;8.20;7.50;;;;;;;-128.00;-1.00;-1.00;19055;322;7505356;-33
2023/09/18 06:54:15;;;;;;;9.30;8.40;;;;;;;-128.00;-1.00;-1.00;19494;317;7504800;-35
2023/09/18 06:56:41;;;;;;;11.70;8.40;;;;;;;-128.00;-1.00;-1.00;19069;317;7506473;-32
2023/09/18 06:59:07;;;;;;;9.30;7.90;;;;;;;-128.00;-1.00;-1.00;19066;322;7505374;-36
2023/09/18 07:01:33;;;;;;;6.40;5.80;;;;;;;-128.00;-1.00;-1.00;19054;317;7505315;-36
2023/09/18 07:03:59;;;;;;;8.50;7.30;;;;;;;-128.00;-1.00;-1.00;19056;322;7504389;-36
2023/09/18 07:06:25;;;;;;;9.00;7.90;;;;;;;-128.00;-1.00;-1.00;19058;317;7505069;-36
2023/09/18 07:08:51;;;;;;;8.40;7.30;;;;;;;-128.00;-1.00;-1.00;19072;316;7505530;-37
2023/09/18 07:11:17;;;;;;;13.10;6.20;;;;;;;-128.00;-1.00;-1.00;19041;316;7506764;-32
2023/09/18 07:13:43;;;;;;;8.60;7.80;;;;;;;-128.00;-1.00;-1.00;19075;322;7506239;-34
2023/09/18 07:16:09;;;;;;;8.60;7.30;;;;;;;-128.00;-1.00;-1.00;19052;317;7504781;-35
2023/09/18 07:18:35;;;;;;;7.80;7.20;;;;;;;-128.00;-1.00;-1.00;19044;320;7504559;-36
2023/09/18 07:21:01;;;;;;;7.10;6.50;;;;;;;-128.00;-1.00;-1.00;19064;322;7507050;-31
2023/09/18 07:23:27;;;;;;;7.30;6.20;;;;;;;-128.00;-1.00;-1.00;19061;317;7504815;-36
2023/09/18 07:25:54;;;;;;;8.30;7.30;;;;;;;-128.00;-1.00;-1.00;19074;320;7504862;-31
2023/09/18 07:28:20;;;;;;;8.40;7.20;;;;;;;-128.00;-1.00;-1.00;19051;316;7504730;-35
2023/09/18 07:30:46;;;;;;;18.10;7.20;;;;;;;-128.00;-1.00;-1.00;19043;316;7504618;-32
2023/09/18 07:33:13;;;;;;;11.00;7.70;;;;;;;-128.00;-1.00;-1.00;19078;322;7504315;-36
2023/09/18 07:35:38;;;;;;;7.00;6.30;;;;;;;-128.00;-1.00;-1.00;19066;317;7504670;-36
2023/09/18 07:38:04;;;;;;;8.50;7.60;;;;;;;-128.00;-1.00;-1.00;19060;317;7504665;-32
2023/09/18 07:40:30;;;;;;;9.60;8.70;;;;;;;-128.00;-1.00;-1.00;19082;320;7504706;-32
2023/09/18 07:42:55;;;;;;;8.20;7.10;;;;;;;-128.00;-1.00;-1.00;19061;317;7505144;-35
2023/09/18 07:45:23;;;;;;;9.90;7.50;;;;;;;-128.00;-1.00;-1.00;19483;322;7506086;-36
2023/09/18 07:47:49;;;;;;;6.80;6.20;;;;;;;-128.00;-1.00;-1.00;19055;317;7505095;-36
2023/09/18 07:50:15;;;;;;;9.90;7.70;;;;;;;-128.00;-1.00;-1.00;19431;318;7504674;-36
2023/09/18 07:52:41;;;;;;;15.10;8.00;;;;;;;-128.00;-1.00;-1.00;19026;318;7505543;-36
2023/09/18 07:55:07;;;;;;;12.60;8.40;;;;;;;-128.00;-1.00;-1.00;19068;317;7504551;-36
2023/09/18 07:57:34;;;;;;;8.20;7.50;;;;;;;-128.00;-1.00;-1.00;19065;320;7504891;-32
2023/09/18 08:00:07;;;;;;;8.80;7.90;;;;;;;-128.00;-1.00;-1.00;19053;317;7505006;-36
2023/09/18 08:02:34;;;;;;;8.70;5.30;;;;;;;-128.00;-1.00;-1.00;19058;317;7504836;-32
2023/09/18 08:05:01;;;;;;;9.70;8.80;;;;;;;-128.00;-1.00;-1.00;19061;316;7506540;-32
2023/09/18 08:07:28;;;;;;;8.70;7.90;;;;;;;-128.00;-1.00;-1.00;19066;317;7504925;-33
2023/09/18 08:09:54;;;;;;;11.70;5.80;;;;;;;-128.00;-1.00;-1.00;18999;321;7504551;-36
2023/09/18 08:12:19;;;;;;;14.50;8.50;;;;;;;-128.00;-1.00;-1.00;19085;320;7505008;-33
2023/09/18 08:14:45;;;;;;;7.80;7.00;;;;;;;-128.00;-1.00;-1.00;19065;317;7504622;-33
2023/09/18 08:17:12;;;;;;;14.50;9.20;;;;;;;-128.00;-1.00;-1.00;19482;322;7504474;-36
2023/09/18 08:19:39;;;;;;;13.90;7.30;;;;;;;-128.00;-1.00;-1.00;19059;322;7506003;-36
2023/09/18 08:22:05;;;;;;;8.80;7.30;;;;;;;-128.00;-1.00;-1.00;19061;322;7506700;-36
2023/09/18 08:24:31;;;;;;;8.60;7.80;;;;;;;-128.00;-1.00;-1.00;19428;322;7505083;-33
2023/09/18 08:26:57;;;;;;;10.80;9.30;;;;;;;-128.00;-1.00;-1.00;19487;317;7504749;-33
2023/09/18 08:29:24;;;;;;;8.40;7.70;;;;;;;-128.00;-1.00;-1.00;19467;316;7505330;-36
2023/09/18 08:31:50;;;;;;;9.00;8.20;;;;;;;-128.00;-1.00;-1.00;19426;317;7505239;-32
2023/09/18 08:34:17;;;;;;;9.50;8.70;;;;;;;-128.00;-1.00;-1.00;19473;316;7505276;-36
2023/09/18 08:36:43;;;;;;;9.90;8.60;;;;;;;-128.00;-1.00;-1.00;19493;320;7504688;-36
2023/09/18 08:39:09;;;;;;;10.80;8.20;;;;;;;-128.00;-1.00;-1.00;19448;317;7505070;-36
2023/09/18 08:41:42;;;;;;;10.00;9.10;;;;;;;-128.00;-1.00;-1.00;19492;322;7504720;-36
2023/09/18 08:44:07;;;;;;;13.20;7.80;;;;;;;-128.00;-1.00;-1.00;19083;321;7505107;-33
2023/09/18 08:46:34;;;;;;;9.30;6.50;;;;;;;-128.00;-1.00;-1.00;19054;322;7505324;-36
2023/09/18 08:49:00;;;;;;;9.90;8.70;;;;;;;-128.00;-1.00;-1.00;19055;317;7504762;-33
2023/09/18 08:51:26;;;;;;;8.60;7.90;;;;;;;-128.00;-1.00;-1.00;19036;322;7505239;-33
2023/09/18 08:53:51;;;;;;;8.50;7.80;;;;;;;-128.00;-1.00;-1.00;19061;322;7504308;-32
2023/09/18 08:56:17;;;;;;;7.80;7.20;;;;;;;-128.00;-1.00;-1.00;19052;317;7506227;-36
2023/09/18 08:58:43;;;;;;;6.20;5.70;;;;;;;-128.00;-1.00;-1.00;19013;318;7504858;-36
2023/09/18 09:01:09;;;;;;;9.30;8.40;;;;;;;-128.00;-1.00;-1.00;19075;317;7504547;-32
2023/09/18 09:03:39;;;;;;;9.00;7.60;;;;;;;-128.00;-1.00;-1.00;19066;317;7504466;-32
2023/09/18 09:06:06;;;;;;;9.80;8.20;;;;;;;-128.00;-1.00;-1.00;19032;317;7506317;-33
2023/09/18 09:08:32;;;;;;;15.40;8.20;;;;;;;-128.00;-1.00;-1.00;19051;317;7504842;-33
2023/09/18 09:10:58;;;;;;;7.30;6.60;;;;;;;-128.00;-1.00;-1.00;19064;317;7506524;-36
2023/09/18 09:13:27;;;;;;;6.30;5.70;;;;;;;-128.00;-1.00;-1.00;19020;317;7504737;-36
2023/09/18 09:15:55;;;;;;;7.80;7.10;;;;;;;-128.00;-1.00;-1.00;19005;318;7504600;-36
2023/09/18 09:18:22;;;;;;;8.40;7.60;;;;;;;-128.00;-1.00;-1.00;19047;322;7504631;-36
2023/09/18 09:21:03;;;;;;;12.50;8.00;;;;;;;-128.00;-1.00;-1.00;19077;320;7504916;-32
2023/09/18 09:23:29;;;;;;;10.00;9.10;;;;;;;-128.00;-1.00;-1.00;18668;322;7504444;-36
2023/09/18 09:26:14;;;;;;;10.60;8.70;;;;;;;-128.00;-1.00;-1.00;19058;322;7504910;-36
2023/09/18 09:28:39;;;;;;;10.00;9.10;;;;;;;-128.00;-1.00;-1.00;19056;322;7505549;-37
2023/09/18 09:31:05;;;;;;;15.30;8.70;;;;;;;-128.00;-1.00;-1.00;19071;317;7505868;-36
2023/09/18 09:33:31;;;;;;;9.30;8.40;;;;;;;-128.00;-1.00;-1.00;19060;317;7504756;-37
2023/09/18 09:35:57;;;;;;;10.20;9.20;;;;;;;-128.00;-1.00;-1.00;19059;322;7505028;-33
2023/09/18 09:38:31;;;;;;;8.50;7.80;;;;;;;-128.00;-1.00;-1.00;19057;317;7504700;-37
2023/09/18 09:40:59;;;;;;;21.00;8.90;;;;;;;-128.00;-1.00;-1.00;19020;322;7505101;-33
2023/09/18 09:43:24;;;;;;;8.70;7.90;;;;;;;-128.00;-1.00;-1.00;19037;322;7504707;-37
2023/09/18 09:45:58;;;;;;;9.80;8.90;;;;;;;-128.00;-1.00;-1.00;19435;319;7505867;-33
2023/09/18 09:48:25;;;;;;;8.70;7.80;;;;;;;-128.00;-1.00;-1.00;19057;320;7504890;-33
2023/09/18 09:50:51;;;;;;;9.20;8.40;;;;;;;-128.00;-1.00;-1.00;19056;317;7504383;-37
2023/09/18 09:53:18;;;;;;;7.10;6.40;;;;;;;-128.00;-1.00;-1.00;19016;318;7506284;-37
2023/09/18 09:55:43;;;;;;;7.70;7.00;;;;;;;-128.00;-1.00;-1.00;19075;320;7505093;-36
2023/09/18 09:58:10;;;;;;;8.90;6.90;;;;;;;-128.00;-1.00;-1.00;19054;317;7504326;-32
2023/09/18 10:00:52;;;;;;;13.30;8.40;;;;;;;-128.00;-1.00;-1.00;19072;316;7506591;-33
2023/09/18 10:03:20;;;;;;;7.30;6.60;;;;;;;-128.00;-1.00;-1.00;19058;320;7506735;-36
2023/09/18 10:05:47;;;;;;;17.10;8.40;;;;;;;-128.00;-1.00;-1.00;19061;316;7505290;-36
2023/09/18 10:08:18;;;;;;;9.00;8.20;;;;;;;-128.00;-1.00;-1.00;19062;317;7504524;-32
2023/09/18 10:10:48;;;;;;;13.40;6.80;;;;;;;-128.00;-1.00;-1.00;19058;317;7506105;-32
2023/09/18 10:13:20;;;;;;;17.60;7.70;;;;;;;-128.00;-1.00;-1.00;19052;317;7506289;-33
2023/09/18 10:15:46;;;;;;;9.00;8.20;;;;;;;-128.00;-1.00;-1.00;19057;322;7504774;-37
2023/09/18 10:18:28;;;;;;;9.80;7.80;;;;;;;-128.00;-1.00;-1.00;19061;322;7505402;-32
2023/09/18 10:21:03;;;;;;;8.50;7.10;;;;;;;-128.00;-1.00;-1.00;19224;321;7504379;-36
2023/09/18 10:23:34;;;;;;;13.60;8.10;;;;;;;-128.00;-1.00;-1.00;19010;317;7504788;-32
2023/09/18 10:26:00;;;;;;;9.30;8.30;;;;;;;-128.00;-1.00;-1.00;19060;317;7507248;-36
2023/09/18 10:28:27;;;;;;;12.10;6.80;;;;;;;-128.00;-1.00;-1.00;19064;322;7504659;-35
2023/09/18 10:30:55;;;;;;;8.20;7.50;;;;;;;-128.00;-1.00;-1.00;19065;317;7505258;-36
2023/09/18 10:33:21;;;;;;;6.80;6.20;;;;;;;-128.00;-1.00;-1.00;19047;316;7506158;-36
2023/09/18 10:35:49;;;;;;;10.60;8.80;;;;;;;-128.00;-1.00;-1.00;19491;322;7504779;-36
2023/09/18 10:38:15;;;;;;;10.10;8.10;;;;;;;-128.00;-1.00;-1.00;19470;322;7506979;-36
2023/09/18 10:40:41;;;;;;;7.70;7.00;;;;;;;-128.00;-1.00;-1.00;19061;317;7504582;-36
2023/09/18 10:43:09;;;;;;;16.50;8.70;;;;;;;-128.00;-1.00;-1.00;19052;322;7505046;-36
2023/09/18 10:45:35;;;;;;;8.20;7.50;;;;;;;-128.00;-1.00;-1.00;19071;316;7505221;-36
2023/09/18 10:48:02;;;;;;;10.60;9.10;;;;;;;-128.00;-1.00;-1.00;19474;322;7505194;-37
2023/09/18 10:50:28;;;;;;;8.60;7.80;;;;;;;-128.00;-1.00;-1.00;18991;322;7506495;-33
2023/09/18 10:52:57;;;;;;;9.40;8.60;;;;;;;-128.00;-1.00;-1.00;19034;321;7504834;-32
2023/09/18 10:55:23;;;;;;;10.00;8.40;;;;;;;-128.00;-1.00;-1.00;19048;317;7504789;-32
2023/09/18 10:57:54;;;;;;;9.20;6.80;;;;;;;-128.00;-1.00;-1.00;19070;316;7505321;-37
2023/09/18 11:00:22;;;;;;;;;;;;;;;-128.00;-1.00;-1.00;19087;317;7504902;-36
2023/09/18 11:02:51;;;;;;;27.30;8.90;;;;;;;-128.00;-1.00;-1.00;19047;322;7505227;-33
2023/09/18 11:05:29;;;;;;;9.30;7.50;;;;;;;-128.00;-1.00;-1.00;19057;316;7504941;-36
2023/09/18 11:08:19;;;;;;;8.30;7.50;;;;;;;-128.00;-1.00;-1.00;23823;320;7504710;-32
2023/09/18 11:11:04;;;;;;;7.50;6.80;;;;;;;-128.00;-1.00;-1.00;19050;317;7506079;-33
2023/09/18 11:13:31;;;;;;;14.60;8.20;;;;;;;-128.00;-1.00;-1.00;19452;321;7504779;-36
2023/09/18 11:16:03;;;;;;;10.10;9.20;;;;;;;-128.00;-1.00;-1.00;19144;322;7504764;-36
2023/09/18 11:18:32;;;;;;;7.00;6.40;;;;;;;-128.00;-1.00;-1.00;19075;317;7504455;-32
2023/09/18 11:21:11;;;;;;;9.70;8.80;;;;;;;-128.00;-1.00;-1.00;19080;316;7506748;-32
2023/09/18 11:23:37;;;;;;;13.30;8.00;;;;;;;-128.00;-1.00;-1.00;19060;322;7504781;-32
2023/09/18 11:26:06;;;;;;;11.10;7.20;;;;;;;-128.00;-1.00;-1.00;19071;320;7506573;-36
2023/09/18 11:28:31;;;;;;;21.40;8.90;;;;;;;-128.00;-1.00;-1.00;19039;322;7505120;-36
2023/09/18 11:31:01;;;;;;;9.70;8.10;;;;;;;-128.00;-1.00;-1.00;19080;317;7505687;-36
2023/09/18 11:33:40;;;;;;;7.10;6.50;;;;;;;-128.00;-1.00;-1.00;19465;320;7504787;-36
2023/09/18 11:36:14;;;;;;;12.70;8.50;;;;;;;-128.00;-1.00;-1.00;19058;316;7505223;-36
2023/09/18 11:39:03;;;;;;;8.20;7.50;;;;;;;-128.00;-1.00;-1.00;19019;317;7504790;-35
2023/09/18 11:41:30;;;;;;;15.60;6.80;;;;;;;-128.00;-1.00;-1.00;19004;322;7505914;-32
2023/09/18 11:44:26;;;;;;;7.70;7.10;;;;;;;-128.00;-1.00;-1.00;19070;317;7505476;-32
2023/09/18 11:46:52;;;;;;;7.70;7.00;;;;;;;-128.00;-1.00;-1.00;19060;317;7504435;-36
2023/09/18 11:49:22;;;;;;;11.30;8.70;;;;;;;-128.00;-1.00;-1.00;19466;317;7505144;-32
2023/09/18 11:51:49;;;;;;;8.00;7.20;;;;;;;-128.00;-1.00;-1.00;22177;317;7504432;-36
2023/09/18 11:54:16;;;;;;;8.70;8.00;;;;;;;-128.00;-1.00;-1.00;21649;322;7506702;-36
2023/09/18 11:56:42;;;;;;;10.10;9.10;;;;;;;-128.00;-1.00;-1.00;19049;320;7506512;-32
2023/09/18 11:59:10;;;;;;;10.20;9.40;;;;;;;-128.00;-1.00;-1.00;19428;317;7505010;-33
2023/09/18 12:01:36;;;;;;;11.70;8.10;;;;;;;-128.00;-1.00;-1.00;19048;317;7504977;-32
2023/09/18 12:04:02;;;;;;;15.80;6.80;;;;;;;-128.00;-1.00;-1.00;19045;317;7505048;-36
2023/09/18 12:06:27;;;;;;;8.50;7.60;;;;;;;-128.00;-1.00;-1.00;19003;319;7506236;-36
2023/09/18 12:08:54;;;;;;;10.80;8.50;;;;;;;-128.00;-1.00;-1.00;19472;316;7504988;-33